createdAt,value
2022-10-29T00:00:22.054Z,1.00
2022-10-29T00:04:24.108Z,0.73
2022-10-29T00:08:27.244Z,0.57
2022-10-29T00:12:29.292Z,1.37
2022-10-29T00:16:37.437Z,4.77
2022-10-29T00:20:39.467Z,3.00
2022-10-29T00:24:43.641Z,1.80
2022-10-29T00:28:46.287Z,1.30
2022-10-29T00:33:13.871Z,3.40
2022-10-29T00:37:15.838Z,0.80
2022-10-29T00:41:23.609Z,0.77
2022-10-29T00:45:25.655Z,0.60
2022-10-29T00:49:29.844Z,0.70
2022-10-29T00:53:38.520Z,0.67
2022-10-29T00:57:51.245Z,0.90
2022-10-29T01:01:56.250Z,0.63
2022-10-29T01:06:00.258Z,0.60
2022-10-29T01:10:06.996Z,0.70
2022-10-29T01:14:35.911Z,1.00
2022-10-29T01:18:54.535Z,0.90
2022-10-29T01:23:22.938Z,1.20
2022-10-29T01:27:50.216Z,1.23
2022-10-29T01:32:30.030Z,1.20
2022-10-29T01:36:38.681Z,0.80
2022-10-29T01:46:27.825Z,1.63
2022-10-29T01:50:30.124Z,1.20
2022-10-29T01:54:41.492Z,1.20
2022-10-29T01:58:47.627Z,1.43
2022-10-29T02:03:16.678Z,1.33
2022-10-29T02:07:46.642Z,1.20
2022-10-29T02:12:03.950Z,2.30
2022-10-29T02:16:11.717Z,1.50
2022-10-29T02:20:24.081Z,2.90
2022-10-29T02:24:26.300Z,3.13
2022-10-29T02:28:30.237Z,3.70
2022-10-29T02:32:33.114Z,5.33
2022-10-29T02:36:35.082Z,2.63
2022-10-29T02:41:44.298Z,5.03
2022-10-29T02:46:13.167Z,5.63
2022-10-29T02:50:22.338Z,3.60
2022-10-29T02:54:52.927Z,4.07
2022-10-29T02:58:55.712Z,7.60
2022-10-29T03:03:22.866Z,3.90
2022-10-29T03:07:34.596Z,2.20
2022-10-29T03:11:36.541Z,2.50
2022-10-29T03:15:46.372Z,2.40
2022-10-29T03:19:48.535Z,1.83
2022-10-29T03:23:50.945Z,3.10
2022-10-29T03:28:18.513Z,3.73
2022-10-29T03:33:11.822Z,2.60
2022-10-29T03:37:14.038Z,4.17
2022-10-29T03:41:16.032Z,1.97
2022-10-29T03:45:17.980Z,1.40
2022-10-29T03:49:39.903Z,1.00
2022-10-29T03:53:44.187Z,1.30
2022-10-29T03:57:46.216Z,1.23
2022-10-29T04:01:48.370Z,1.10
2022-10-29T04:05:50.613Z,1.17
2022-10-29T04:09:52.546Z,1.70
2022-10-29T04:14:05.837Z,2.17
2022-10-29T04:18:08.325Z,1.30
2022-10-29T04:31:19.426Z,0.80
2022-10-29T04:35:21.383Z,0.70
2022-10-29T04:39:23.575Z,0.60
2022-10-29T04:43:26.087Z,1.30
2022-10-29T04:47:34.314Z,1.10
2022-10-29T04:51:36.575Z,1.53
2022-10-29T04:55:40.161Z,1.00
2022-10-29T05:00:16.292Z,0.97
2022-10-29T05:04:20.821Z,1.20
2022-10-29T05:08:29.998Z,0.80
2022-10-29T05:12:34.270Z,0.73
2022-10-29T05:16:36.252Z,1.10
2022-10-29T05:20:38.259Z,0.87
2022-10-29T05:24:41.388Z,0.90
2022-10-29T05:28:43.582Z,1.00
2022-10-29T05:33:10.859Z,0.77
2022-10-29T05:37:16.083Z,1.00
2022-10-29T05:41:21.435Z,0.70
2022-10-29T05:45:50.966Z,0.73
2022-10-29T05:49:55.164Z,1.40
2022-10-29T05:53:57.316Z,0.80
2022-10-29T05:58:09.683Z,0.70
2022-10-29T06:02:17.249Z,0.70
2022-10-29T06:06:20.432Z,0.60
2022-10-29T06:10:47.945Z,0.70
2022-10-29T06:14:57.077Z,0.70
2022-10-29T06:18:59.556Z,0.40
2022-10-29T06:23:01.603Z,0.77
2022-10-29T06:33:05.323Z,0.47
2022-10-29T06:37:07.527Z,0.50
2022-10-29T06:41:10.088Z,0.90
2022-10-29T06:45:12.896Z,0.50
2022-10-29T06:49:39.988Z,0.77
2022-10-29T06:53:49.147Z,0.90
2022-10-29T06:58:13.702Z,0.70
2022-10-29T07:02:16.213Z,0.70
2022-10-29T07:06:44.886Z,0.60
2022-10-29T07:11:11.803Z,0.70
2022-10-29T07:15:15.909Z,0.70
2022-10-29T07:19:17.899Z,0.80
2022-10-29T07:24:22.164Z,0.70
2022-10-29T07:28:29.073Z,0.87
2022-10-29T07:32:31.171Z,0.70
2022-10-29T07:36:33.415Z,0.80
2022-10-29T07:40:35.710Z,0.97
2022-10-29T07:50:17.519Z,0.83
2022-10-29T07:54:41.662Z,0.70
2022-10-29T08:04:44.290Z,0.70
2022-10-29T08:09:05.492Z,0.90
2022-10-29T08:13:12.205Z,1.20
2022-10-29T08:17:32.823Z,1.30
2022-10-29T08:21:38.252Z,1.50
2022-10-29T08:25:43.558Z,1.37
2022-10-29T08:29:45.611Z,1.50
2022-10-29T08:33:50.628Z,0.83
2022-10-29T08:37:52.661Z,1.20
2022-10-29T08:41:57.624Z,1.17
2022-10-29T08:46:01.095Z,1.00
2022-10-29T08:50:41.391Z,1.10
2022-10-29T08:55:18.324Z,1.17
2022-10-29T08:59:29.374Z,1.33
2022-10-29T09:03:35.400Z,2.53
2022-10-29T09:08:15.027Z,2.13
2022-10-29T09:12:47.845Z,1.77
2022-10-29T09:17:21.380Z,1.70
2022-10-29T09:21:52.637Z,1.67
2022-10-29T09:26:03.020Z,1.97
2022-10-29T09:30:14.132Z,1.70
2022-10-29T09:34:42.815Z,1.80
2022-10-29T09:38:58.273Z,1.63
2022-10-29T09:43:27.597Z,1.50
2022-10-29T09:47:59.595Z,1.53
2022-10-29T09:52:21.923Z,1.00
2022-10-29T09:56:54.763Z,1.00
2022-10-29T10:01:18.219Z,1.00
2022-10-29T10:05:58.387Z,0.93
2022-10-29T10:10:02.204Z,1.10
2022-10-29T10:14:09.876Z,1.00
2022-10-29T10:18:36.640Z,0.80
2022-10-29T10:22:50.528Z,1.00
2022-10-29T10:26:52.898Z,1.00
2022-10-29T10:31:04.338Z,0.80
2022-10-29T10:35:45.278Z,1.10
2022-10-29T10:39:53.495Z,0.83
2022-10-29T10:44:13.880Z,0.80
2022-10-29T10:49:14.016Z,0.90
2022-10-29T10:53:41.727Z,0.90
2022-10-29T10:57:54.210Z,1.00
2022-10-29T11:02:04.079Z,0.90
2022-10-29T11:06:24.642Z,1.20
2022-10-29T11:10:40.531Z,1.20
2022-10-29T11:15:20.122Z,1.27
2022-10-29T11:20:15.089Z,1.37
2022-10-29T11:24:45.318Z,1.57
2022-10-29T11:29:04.209Z,1.30
2022-10-29T11:33:36.312Z,1.90
2022-10-29T11:38:30.772Z,1.80
2022-10-29T11:42:32.849Z,1.60
2022-10-29T11:46:43.813Z,1.73
2022-10-29T11:50:51.788Z,1.50
2022-10-29T11:55:24.964Z,1.30
2022-10-29T12:00:16.326Z,1.87
2022-10-29T12:04:43.440Z,2.03
2022-10-29T12:09:05.710Z,1.77
2022-10-29T12:19:19.481Z,2.00
2022-10-29T12:24:06.321Z,1.37
2022-10-29T12:28:44.858Z,1.80
2022-10-29T12:33:09.674Z,1.40
2022-10-29T12:37:27.314Z,1.83
2022-10-29T12:42:07.793Z,1.30
2022-10-29T12:46:21.110Z,1.67
2022-10-29T12:56:02.880Z,1.50
2022-10-29T13:00:24.472Z,1.33
2022-10-29T13:05:33.008Z,1.30
2022-10-29T13:09:40.351Z,1.33
2022-10-29T13:14:20.718Z,1.33
2022-10-29T13:19:08.327Z,1.50
2022-10-29T13:23:22.596Z,1.80
2022-10-29T13:27:27.701Z,1.70
2022-10-29T13:31:31.008Z,1.37
2022-10-29T13:35:32.999Z,1.30
2022-10-29T13:39:34.977Z,1.40
2022-10-29T13:43:37.107Z,1.40
2022-10-29T13:47:40.572Z,1.37
2022-10-29T13:51:53.504Z,1.30
2022-10-29T13:55:56.604Z,1.37
2022-10-29T14:00:49.995Z,1.27
2022-10-29T14:05:05.618Z,1.47
2022-10-29T14:10:05.393Z,1.27
2022-10-29T14:14:56.333Z,1.43
2022-10-29T14:18:58.874Z,1.30
2022-10-29T14:23:16.493Z,1.30
2022-10-29T14:27:18.656Z,1.30
2022-10-29T14:32:33.341Z,1.37
2022-10-29T14:36:52.841Z,1.33
2022-10-29T14:40:55.134Z,1.20
2022-10-29T14:45:00.242Z,1.07
2022-10-29T14:49:32.506Z,1.43
2022-10-29T14:53:59.047Z,1.10
2022-10-29T14:58:11.798Z,1.30
2022-10-29T15:07:24.924Z,1.70
2022-10-29T15:11:35.596Z,1.70
2022-10-29T15:15:40.007Z,1.93
2022-10-29T15:19:44.721Z,1.77
2022-10-29T15:23:46.731Z,1.60
2022-10-29T15:29:04.896Z,1.47
2022-10-29T15:33:21.160Z,1.30
2022-10-29T15:37:33.413Z,1.53
2022-10-29T15:41:38.749Z,2.50
2022-10-29T15:45:57.351Z,2.20
2022-10-29T15:50:11.208Z,3.20
2022-10-29T15:55:03.718Z,3.40
2022-10-29T15:59:06.547Z,5.20
2022-10-29T16:03:34.118Z,4.47
2022-10-29T16:07:39.300Z,4.57
2022-10-29T16:12:00.908Z,3.93
2022-10-29T16:16:13.894Z,2.50
2022-10-29T16:20:55.163Z,1.57
2022-10-29T16:24:58.521Z,1.70
2022-10-29T16:29:28.927Z,1.70
2022-10-29T16:34:02.024Z,1.83
2022-10-29T16:38:07.347Z,1.60
2022-10-29T16:42:35.920Z,1.70
2022-10-29T16:46:38.143Z,1.77
2022-10-29T16:51:07.223Z,1.60
2022-10-29T16:55:18.625Z,2.00
2022-10-29T16:59:21.022Z,2.00
2022-10-29T17:03:39.177Z,1.63
2022-10-29T17:07:42.393Z,1.77
2022-10-29T17:11:44.400Z,1.67
2022-10-29T17:16:47.040Z,1.47
2022-10-29T17:21:01.290Z,2.03
2022-10-29T17:25:18.748Z,1.30
2022-10-29T17:29:23.016Z,1.83
2022-10-29T17:33:25.002Z,1.33
2022-10-29T17:37:27.786Z,1.53
2022-10-29T17:41:31.095Z,1.90
2022-10-29T17:46:22.620Z,1.80
2022-10-29T17:50:25.674Z,1.50
2022-10-29T17:54:37.078Z,1.97
2022-10-29T17:59:49.155Z,1.80
2022-10-29T18:03:51.146Z,1.60
2022-10-29T18:07:53.452Z,1.83
2022-10-29T18:11:55.391Z,2.07
2022-10-29T18:16:01.801Z,1.40
2022-10-29T18:20:30.055Z,1.97
2022-10-29T18:24:34.183Z,2.10
2022-10-29T18:28:36.842Z,1.87
2022-10-29T18:32:39.856Z,1.83
2022-10-29T18:36:43.148Z,1.53
2022-10-29T18:40:56.256Z,1.57
2022-10-29T18:45:24.013Z,1.43
2022-10-29T18:49:45.272Z,1.33
2022-10-29T18:59:23.290Z,1.40
2022-10-29T19:03:55.598Z,1.63
2022-10-29T19:07:57.849Z,1.47
2022-10-29T19:12:00.139Z,1.40
2022-10-29T19:16:29.616Z,1.63
2022-10-29T19:20:34.142Z,1.30
2022-10-29T19:24:36.370Z,1.53
2022-10-29T19:28:41.027Z,1.37
2022-10-29T19:33:56.940Z,1.80
2022-10-29T19:38:27.340Z,1.13
2022-10-29T19:42:39.458Z,2.00
2022-10-29T19:46:43.299Z,1.23
2022-10-29T19:51:00.838Z,2.27
2022-10-29T19:55:09.200Z,1.40
2022-10-29T19:59:11.382Z,2.00
2022-10-29T20:03:14.758Z,1.63
2022-10-29T20:07:16.732Z,1.50
2022-10-29T20:12:22.212Z,1.60
2022-10-29T20:16:30.339Z,1.40
2022-10-29T20:21:00.222Z,1.50
2022-10-29T20:25:08.947Z,1.53
2022-10-29T20:29:13.329Z,1.43
2022-10-29T20:33:17.445Z,1.47
2022-10-29T20:37:19.579Z,1.30
2022-10-29T20:41:22.522Z,1.50
2022-10-29T20:45:46.413Z,1.10
2022-10-29T20:49:48.419Z,1.40
2022-10-29T20:53:52.792Z,1.10
2022-10-29T20:57:55.049Z,0.90
2022-10-29T21:02:11.976Z,1.03
2022-10-29T21:06:20.984Z,1.40
2022-10-29T21:10:23.113Z,1.27
2022-10-29T21:14:49.823Z,1.20
2022-10-29T21:18:57.873Z,1.13
2022-10-29T21:23:00.171Z,1.37
2022-10-29T21:27:02.589Z,1.10
2022-10-29T21:32:03.841Z,1.40
2022-10-29T21:36:35.007Z,1.73
2022-10-29T21:40:36.937Z,1.73
2022-10-29T21:44:39.061Z,1.70
2022-10-29T21:48:41.387Z,1.53
2022-10-29T21:53:22.286Z,1.83
2022-10-29T21:57:29.223Z,1.40
2022-10-29T22:01:31.522Z,1.07
2022-10-29T22:05:37.159Z,1.60
2022-10-29T22:09:49.481Z,1.10
2022-10-29T22:13:52.350Z,1.40
2022-10-29T22:18:00.652Z,1.00
2022-10-29T22:22:02.727Z,1.20
2022-10-29T22:26:04.759Z,1.20
2022-10-29T22:30:06.995Z,1.30
2022-10-29T22:34:13.671Z,1.10
2022-10-29T22:38:15.868Z,1.33
2022-10-29T22:42:24.276Z,1.40
2022-10-29T22:46:29.676Z,1.37
2022-10-29T22:50:58.428Z,1.53
2022-10-29T22:55:00.444Z,1.40
2022-10-29T22:59:03.430Z,1.00
2022-10-29T23:04:14.299Z,1.13
2022-10-29T23:08:17.320Z,1.27
2022-10-29T23:12:22.600Z,1.47
2022-10-29T23:16:27.173Z,1.23
2022-10-29T23:20:48.857Z,1.23
2022-10-29T23:24:50.763Z,1.10
2022-10-29T23:28:53.447Z,1.23
2022-10-29T23:32:55.779Z,1.10
2022-10-29T23:37:25.981Z,1.70
2022-10-29T23:41:29.242Z,0.90
2022-10-29T23:56:04.972Z,0.87
